createdAt,value
2022-09-15T00:01:22.652Z,75.40
2022-09-15T00:03:51.416Z,75.50
2022-09-15T00:06:20.227Z,75.60
2022-09-15T00:08:48.482Z,75.50
2022-09-15T00:11:18.515Z,75.40
2022-09-15T00:13:49.560Z,75.40
2022-09-15T00:16:18.936Z,75.40
2022-09-15T00:18:47.454Z,75.20
2022-09-15T00:21:18.232Z,75.20
2022-09-15T00:23:46.747Z,75.10
2022-09-15T00:26:17.311Z,75.10
2022-09-15T00:28:47.420Z,75.00
2022-09-15T00:31:18.043Z,74.90
2022-09-15T00:33:48.729Z,74.90
2022-09-15T00:36:17.720Z,74.70
2022-09-15T00:38:46.130Z,74.60
2022-09-15T00:41:16.867Z,74.50
2022-09-15T00:43:52.610Z,74.50
2022-09-15T00:46:23.645Z,74.40
2022-09-15T00:48:57.683Z,74.30
2022-09-15T00:51:33.466Z,74.30
2022-09-15T00:54:06.003Z,74.30
2022-09-15T00:56:36.377Z,74.10
2022-09-15T00:59:11.150Z,74.20
2022-09-15T01:01:42.029Z,74.10
2022-09-15T01:04:10.876Z,74.20
2022-09-15T01:06:42.106Z,74.20
2022-09-15T01:09:16.125Z,74.30
2022-09-15T01:11:46.030Z,74.40
2022-09-15T01:14:15.850Z,74.60
2022-09-15T01:16:53.328Z,74.40
2022-09-15T01:19:56.548Z,74.20
2022-09-15T01:22:36.668Z,74.50
2022-09-15T01:25:11.200Z,74.50
2022-09-15T01:28:17.763Z,74.80
2022-09-15T01:30:52.807Z,74.60
2022-09-15T01:33:32.290Z,74.60
2022-09-15T01:36:06.033Z,74.20
2022-09-15T01:38:47.203Z,74.10
2022-09-15T01:41:18.365Z,73.80
2022-09-15T01:43:52.152Z,73.80
2022-09-15T01:46:25.385Z,73.60
2022-09-15T01:48:56.906Z,73.50
2022-09-15T01:51:26.859Z,73.60
2022-09-15T01:53:56.968Z,73.70
2022-09-15T01:56:25.221Z,73.70
2022-09-15T01:58:53.515Z,73.90
2022-09-15T02:01:32.152Z,74.10
2022-09-15T02:04:06.031Z,74.30
2022-09-15T02:06:39.679Z,74.40
2022-09-15T02:09:13.823Z,74.40
2022-09-15T02:11:52.232Z,74.60
2022-09-15T02:14:36.817Z,74.60
2022-09-15T02:17:06.763Z,74.60
2022-09-15T02:19:41.881Z,74.70
2022-09-15T02:22:17.588Z,74.70
2022-09-15T02:24:49.490Z,74.60
2022-09-15T02:27:20.298Z,74.60
2022-09-15T02:29:49.759Z,74.60
2022-09-15T02:32:23.554Z,74.20
2022-09-15T02:34:54.780Z,74.20
2022-09-15T02:37:24.318Z,74.00
2022-09-15T02:39:56.149Z,74.10
2022-09-15T02:42:25.290Z,74.10
2022-09-15T02:44:53.559Z,74.30
2022-09-15T02:47:23.094Z,74.80
2022-09-15T02:49:51.250Z,74.10
2022-09-15T02:52:19.322Z,73.90
2022-09-15T02:54:47.457Z,74.00
2022-09-15T02:57:15.499Z,74.00
2022-09-15T03:00:01.150Z,74.10
2022-09-15T03:02:31.136Z,74.10
2022-09-15T03:04:59.320Z,73.70
2022-09-15T03:07:28.526Z,73.60
2022-09-15T03:09:56.831Z,73.30
2022-09-15T03:12:24.920Z,73.50
2022-09-15T03:14:53.253Z,73.50
2022-09-15T03:17:21.476Z,73.50
2022-09-15T03:19:51.099Z,73.30
2022-09-15T03:22:19.210Z,73.10
2022-09-15T03:24:48.080Z,73.00
2022-09-15T03:27:16.170Z,72.80
2022-09-15T03:29:44.862Z,72.80
2022-09-15T03:32:12.901Z,72.60
2022-09-15T03:34:41.194Z,72.60
2022-09-15T03:37:10.813Z,72.70
2022-09-15T03:39:39.016Z,72.40
2022-09-15T03:42:07.472Z,72.50
2022-09-15T03:44:36.057Z,72.40
2022-09-15T03:47:04.540Z,72.30
2022-09-15T03:49:32.669Z,72.30
2022-09-15T03:52:00.800Z,72.10
2022-09-15T03:54:30.413Z,72.20
2022-09-15T03:56:58.511Z,72.00
2022-09-15T03:59:33.531Z,72.10
2022-09-15T04:02:01.636Z,72.10
2022-09-15T04:04:29.883Z,72.10
2022-09-15T04:06:57.990Z,72.10
2022-09-15T04:09:26.404Z,72.20
2022-09-15T04:11:55.982Z,71.90
2022-09-15T04:14:24.095Z,71.80
2022-09-15T04:16:52.380Z,71.90
2022-09-15T04:19:20.486Z,71.80
2022-09-15T04:21:48.577Z,71.80
2022-09-15T04:24:17.202Z,71.60
2022-09-15T04:26:45.558Z,71.40
2022-09-15T04:29:17.521Z,71.50
2022-09-15T04:31:46.774Z,71.50
2022-09-15T04:34:15.222Z,71.70
2022-09-15T04:36:43.319Z,71.80
2022-09-15T04:39:11.387Z,71.80
2022-09-15T04:41:39.526Z,71.80
2022-09-15T04:44:07.610Z,71.80
2022-09-15T04:46:37.124Z,71.80
2022-09-15T04:49:05.420Z,71.80
2022-09-15T04:51:33.507Z,71.80
2022-09-15T04:54:01.691Z,71.90
2022-09-15T04:56:29.817Z,71.90
2022-09-15T04:59:03.953Z,71.80
2022-09-15T05:01:35.285Z,71.90
2022-09-15T05:04:05.912Z,71.80
2022-09-15T05:06:35.256Z,71.80
2022-09-15T05:09:09.083Z,71.90
2022-09-15T05:11:38.764Z,71.90
2022-09-15T05:14:08.043Z,72.10
2022-09-15T05:16:36.213Z,72.10
2022-09-15T05:19:05.694Z,72.20
2022-09-15T05:21:34.494Z,72.40
2022-09-15T05:24:02.973Z,72.40
2022-09-15T05:26:31.843Z,72.30
2022-09-15T05:29:00.044Z,72.30
2022-09-15T05:31:30.657Z,72.50
2022-09-15T05:34:01.912Z,72.50
2022-09-15T05:36:31.722Z,72.50
2022-09-15T05:39:00.356Z,72.40
2022-09-15T05:41:29.537Z,72.50
2022-09-15T05:43:58.938Z,72.60
2022-09-15T05:46:27.915Z,72.60
2022-09-15T05:48:58.393Z,72.70
2022-09-15T05:51:26.550Z,72.90
2022-09-15T05:53:56.067Z,72.90
2022-09-15T05:56:24.225Z,73.00
2022-09-15T05:58:52.461Z,72.90
2022-09-15T06:01:22.813Z,72.90
2022-09-15T06:03:51.466Z,73.00
2022-09-15T06:06:20.189Z,73.00
2022-09-15T06:08:55.447Z,73.10
2022-09-15T06:11:28.490Z,74.00
2022-09-15T06:13:56.816Z,73.30
2022-09-15T06:16:25.328Z,73.50
2022-09-15T06:18:54.483Z,73.30
2022-09-15T06:21:24.535Z,73.30
2022-09-15T06:23:55.042Z,73.40
2022-09-15T06:26:23.874Z,73.50
2022-09-15T06:28:55.639Z,73.50
2022-09-15T06:31:24.868Z,73.40
2022-09-15T06:33:54.528Z,74.10
2022-09-15T06:36:25.071Z,73.50
2022-09-15T06:38:53.580Z,73.30
2022-09-15T06:41:21.788Z,73.30
2022-09-15T06:43:50.146Z,73.10
2022-09-15T06:46:21.930Z,72.80
2022-09-15T06:48:51.260Z,72.70
2022-09-15T06:51:21.021Z,73.10
2022-09-15T06:53:49.399Z,72.50
2022-09-15T06:56:19.875Z,72.00
2022-09-15T06:58:49.948Z,71.90
2022-09-15T07:01:23.813Z,71.80
2022-09-15T07:03:52.216Z,71.80
2022-09-15T07:06:20.683Z,71.90
2022-09-15T07:08:49.761Z,71.60
2022-09-15T07:11:19.034Z,71.60
2022-09-15T07:13:48.544Z,71.40
2022-09-15T07:16:17.063Z,71.30
2022-09-15T07:18:46.578Z,71.20
2022-09-15T07:21:16.012Z,71.30
2022-09-15T07:23:44.920Z,71.50
2022-09-15T07:26:15.154Z,71.40
2022-09-15T07:28:45.654Z,71.40
2022-09-15T07:31:16.073Z,71.30
2022-09-15T07:33:44.382Z,70.70
2022-09-15T07:36:14.268Z,70.20
2022-09-15T07:38:44.453Z,69.90
2022-09-15T07:41:14.380Z,69.70
2022-09-15T07:43:46.287Z,69.50
2022-09-15T07:46:14.246Z,69.20
2022-09-15T07:48:44.685Z,70.00
2022-09-15T07:51:15.115Z,69.00
2022-09-15T07:53:43.552Z,68.30
2022-09-15T07:56:11.709Z,68.20
2022-09-15T07:58:39.808Z,68.20
2022-09-15T08:01:11.296Z,68.10
2022-09-15T08:03:41.421Z,68.10
2022-09-15T08:06:10.836Z,67.90
2022-09-15T08:08:40.935Z,67.80
2022-09-15T08:11:09.889Z,67.70
2022-09-15T08:13:38.458Z,67.30
2022-09-15T08:16:07.952Z,67.60
2022-09-15T08:18:36.313Z,67.30
2022-09-15T08:21:08.015Z,67.00
2022-09-15T08:23:36.344Z,66.10
2022-09-15T08:26:09.676Z,66.40
2022-09-15T08:28:40.233Z,66.30
2022-09-15T08:31:09.885Z,66.00
2022-09-15T08:33:41.823Z,66.20
2022-09-15T08:36:12.756Z,66.50
2022-09-15T08:38:41.535Z,66.30
2022-09-15T08:41:16.214Z,66.50
2022-09-15T08:43:49.278Z,66.40
2022-09-15T08:46:23.255Z,66.30
2022-09-15T08:49:02.023Z,66.60
2022-09-15T08:51:35.663Z,66.20
2022-09-15T08:54:12.248Z,66.40
2022-09-15T08:56:44.622Z,65.80
2022-09-15T08:59:16.178Z,65.80
2022-09-15T09:02:04.737Z,65.50
2022-09-15T09:04:57.803Z,65.30
2022-09-15T09:07:53.025Z,64.80
2022-09-15T09:10:28.780Z,64.70
2022-09-15T09:13:08.730Z,65.00
2022-09-15T09:15:49.017Z,64.80
2022-09-15T09:18:48.933Z,65.10
2022-09-15T09:21:24.763Z,64.90
2022-09-15T09:24:00.305Z,64.90
2022-09-15T09:26:31.303Z,65.00
2022-09-15T09:29:02.799Z,65.10
2022-09-15T09:31:30.915Z,64.60
2022-09-15T09:34:11.496Z,64.60
2022-09-15T09:36:39.652Z,63.90
2022-09-15T09:39:10.425Z,64.40
2022-09-15T09:41:39.852Z,64.20
2022-09-15T09:44:15.175Z,63.60
2022-09-15T09:46:44.212Z,63.10
2022-09-15T09:49:19.698Z,63.10
2022-09-15T09:51:52.952Z,62.40
2022-09-15T09:54:25.251Z,62.80
2022-09-15T09:56:54.889Z,62.60
2022-09-15T09:59:39.811Z,62.70
2022-09-15T10:02:19.556Z,62.50
2022-09-15T10:04:49.291Z,63.20
2022-09-15T10:07:20.612Z,62.70
2022-09-15T10:09:54.523Z,62.40
2022-09-15T10:12:26.115Z,61.80
2022-09-15T10:14:58.379Z,61.90
2022-09-15T10:17:29.410Z,61.70
2022-09-15T10:19:59.141Z,61.30
2022-09-15T10:22:31.551Z,60.30
2022-09-15T10:25:01.629Z,60.40
2022-09-15T10:27:32.591Z,60.70
2022-09-15T10:30:19.670Z,60.60
2022-09-15T10:32:48.621Z,60.50
2022-09-15T10:35:19.297Z,60.70
2022-09-15T10:38:00.357Z,60.20
2022-09-15T10:40:34.766Z,60.50
2022-09-15T10:43:25.890Z,60.00
2022-09-15T10:46:02.922Z,60.10
2022-09-15T10:48:44.442Z,59.70
2022-09-15T10:51:27.577Z,59.40
2022-09-15T10:54:05.811Z,59.60
2022-09-15T10:56:37.967Z,59.60
2022-09-15T10:59:38.047Z,59.50
2022-09-15T11:02:45.224Z,59.30
2022-09-15T11:05:24.792Z,59.50
2022-09-15T11:08:05.009Z,58.40
2022-09-15T11:10:41.519Z,57.40
2022-09-15T11:13:19.117Z,56.50
2022-09-15T11:15:58.288Z,55.60
2022-09-15T11:18:57.195Z,55.20
2022-09-15T11:21:32.167Z,55.40
2022-09-15T11:24:21.397Z,55.40
2022-09-15T11:26:57.537Z,54.70
2022-09-15T11:29:30.585Z,54.50
2022-09-15T11:32:04.180Z,55.00
2022-09-15T11:34:36.821Z,55.20
2022-09-15T11:37:13.299Z,55.30
2022-09-15T11:39:47.396Z,55.30
2022-09-15T11:42:21.611Z,55.20
2022-09-15T11:44:50.943Z,55.10
2022-09-15T11:47:27.311Z,55.20
2022-09-15T11:50:01.637Z,54.50
2022-09-15T11:52:44.051Z,54.30
2022-09-15T11:55:21.829Z,54.10
2022-09-15T11:57:57.092Z,54.10
2022-09-15T12:00:25.458Z,54.20
2022-09-15T12:03:00.937Z,54.20
2022-09-15T12:05:37.648Z,54.10
2022-09-15T12:08:12.920Z,53.90
2022-09-15T12:10:45.132Z,54.00
2022-09-15T12:13:18.463Z,53.00
2022-09-15T12:15:48.027Z,52.30
2022-09-15T12:18:38.160Z,52.60
2022-09-15T12:21:13.305Z,52.30
2022-09-15T12:23:45.771Z,54.40
2022-09-15T12:26:19.448Z,52.50
2022-09-15T12:28:59.004Z,52.00
2022-09-15T12:31:38.535Z,52.50
2022-09-15T12:34:29.452Z,51.40
2022-09-15T12:37:09.963Z,51.10
2022-09-15T12:39:43.145Z,50.50
2022-09-15T12:42:20.368Z,50.40
2022-09-15T12:44:54.328Z,50.60
2022-09-15T12:47:28.413Z,51.20
2022-09-15T12:50:02.467Z,51.20
2022-09-15T12:52:32.323Z,50.90
2022-09-15T12:55:04.679Z,50.80
2022-09-15T12:57:35.368Z,50.90
2022-09-15T13:00:30.039Z,51.20
2022-09-15T13:02:58.453Z,51.40
2022-09-15T13:05:52.747Z,51.80
2022-09-15T13:08:59.457Z,51.70
2022-09-15T13:11:38.534Z,51.90
2022-09-15T13:14:28.780Z,51.70
2022-09-15T13:17:01.139Z,51.20
2022-09-15T13:19:41.315Z,52.20
2022-09-15T13:22:19.997Z,51.90
2022-09-15T13:24:51.740Z,51.70
2022-09-15T13:27:22.418Z,51.80
2022-09-15T13:29:55.968Z,53.10
2022-09-15T13:32:43.638Z,52.00
2022-09-15T13:35:38.787Z,51.70
2022-09-15T13:38:35.962Z,51.20
2022-09-15T13:41:44.779Z,50.90
2022-09-15T13:44:44.870Z,51.20
2022-09-15T13:47:24.143Z,51.30
2022-09-15T13:49:56.390Z,51.10
2022-09-15T13:53:12.689Z,51.40
2022-09-15T13:55:45.467Z,51.20
2022-09-15T14:01:07.769Z,51.50
2022-09-15T14:03:43.541Z,51.30
2022-09-15T14:06:15.226Z,51.40
2022-09-15T14:08:52.378Z,51.20
2022-09-15T14:11:26.323Z,50.60
2022-09-15T14:13:56.134Z,50.80
2022-09-15T14:16:31.369Z,51.20
2022-09-15T14:19:00.224Z,51.10
2022-09-15T14:21:30.101Z,51.50
2022-09-15T14:24:05.923Z,51.60
2022-09-15T14:26:36.551Z,51.30
2022-09-15T14:29:10.944Z,51.60
2022-09-15T14:31:42.008Z,51.40
2022-09-15T14:34:18.210Z,51.40
2022-09-15T14:36:46.954Z,51.60
2022-09-15T14:39:21.398Z,51.60
2022-09-15T14:41:50.586Z,51.80
2022-09-15T14:47:26.597Z,51.50
2022-09-15T14:50:09.752Z,51.60
2022-09-15T14:52:41.514Z,51.50
2022-09-15T14:55:13.563Z,51.50
2022-09-15T15:00:22.804Z,51.90
2022-09-15T15:03:03.552Z,51.90
2022-09-15T15:05:35.603Z,52.00
2022-09-15T15:08:06.666Z,52.30
2022-09-15T15:10:36.085Z,52.40
2022-09-15T15:13:08.998Z,52.50
2022-09-15T15:15:39.005Z,52.50
2022-09-15T15:18:31.822Z,52.60
2022-09-15T15:21:00.659Z,52.70
2022-09-15T15:23:29.225Z,52.90
2022-09-15T15:26:27.374Z,52.80
2022-09-15T15:28:55.499Z,52.80
2022-09-15T15:31:25.813Z,53.00
2022-09-15T15:33:59.395Z,53.10
2022-09-15T15:36:29.189Z,53.10
2022-09-15T15:38:59.296Z,53.20
2022-09-15T15:41:29.027Z,53.30
2022-09-15T15:44:08.104Z,53.30
2022-09-15T15:46:47.127Z,53.90
2022-09-15T15:49:16.639Z,53.10
2022-09-15T15:51:44.999Z,53.10
2022-09-15T15:54:13.049Z,53.20
2022-09-15T15:56:41.355Z,53.10
2022-09-15T15:59:12.814Z,53.20
2022-09-15T16:01:41.436Z,53.10
2022-09-15T16:04:12.130Z,53.20
2022-09-15T16:06:43.220Z,53.30
2022-09-15T16:09:13.265Z,53.20
2022-09-15T16:11:43.059Z,53.30
2022-09-15T16:14:13.668Z,53.40
2022-09-15T16:16:41.851Z,53.40
2022-09-15T16:19:09.986Z,53.60
2022-09-15T16:21:42.625Z,53.60
2022-09-15T16:24:14.343Z,53.80
2022-09-15T16:26:42.992Z,53.90
2022-09-15T16:29:11.263Z,54.10
2022-09-15T16:31:39.659Z,54.20
2022-09-15T16:34:07.775Z,54.40
2022-09-15T16:36:36.772Z,54.50
2022-09-15T16:39:06.939Z,54.40
2022-09-15T16:41:39.257Z,54.50
2022-09-15T16:44:15.385Z,54.60
2022-09-15T16:46:43.514Z,54.70
2022-09-15T16:49:11.681Z,54.70
2022-09-15T16:51:39.860Z,54.80
2022-09-15T16:54:16.224Z,54.70
2022-09-15T16:56:45.465Z,54.70
2022-09-15T16:59:13.749Z,54.80
2022-09-15T17:01:41.905Z,54.90
2022-09-15T17:04:14.471Z,55.10
2022-09-15T17:06:42.575Z,55.00
2022-09-15T17:09:12.012Z,55.10
2022-09-15T17:11:40.776Z,55.20
2022-09-15T17:14:13.242Z,55.30
2022-09-15T17:16:41.317Z,55.50
2022-09-15T17:19:09.422Z,55.60
2022-09-15T17:21:37.971Z,55.70
2022-09-15T17:24:06.352Z,55.90
2022-09-15T17:26:35.915Z,56.00
2022-09-15T17:29:04.257Z,56.00
2022-09-15T17:31:32.413Z,56.10
2022-09-15T17:34:02.234Z,56.30
2022-09-15T17:36:30.316Z,56.40
2022-09-15T17:38:58.381Z,56.50
2022-09-15T17:41:26.455Z,56.60
2022-09-15T17:43:55.966Z,56.60
2022-09-15T17:46:24.038Z,56.70
2022-09-15T17:48:52.450Z,56.80
2022-09-15T17:51:20.519Z,56.80
2022-09-15T17:53:48.708Z,56.80
2022-09-15T17:56:16.891Z,56.90
2022-09-15T17:58:44.961Z,57.60
2022-09-15T18:01:16.180Z,57.00
2022-09-15T18:03:45.703Z,56.90
2022-09-15T18:06:14.056Z,56.90
2022-09-15T18:08:42.330Z,56.80
2022-09-15T18:11:14.413Z,56.80
2022-09-15T18:13:43.091Z,56.50
2022-09-15T18:16:14.868Z,56.50
2022-09-15T18:18:43.672Z,56.50
2022-09-15T18:21:25.789Z,56.50
2022-09-15T18:23:54.769Z,56.20
2022-09-15T18:26:26.397Z,56.50
2022-09-15T18:28:55.955Z,56.40
2022-09-15T18:31:25.511Z,56.50
2022-09-15T18:33:53.676Z,56.50
2022-09-15T18:36:21.807Z,56.40
2022-09-15T18:38:49.889Z,56.20
2022-09-15T18:41:18.605Z,56.00
2022-09-15T18:43:49.103Z,56.00
2022-09-15T18:46:18.307Z,55.80
2022-09-15T18:48:48.044Z,55.70
2022-09-15T18:51:24.030Z,55.50
2022-09-15T18:53:57.303Z,55.20
2022-09-15T18:56:25.313Z,55.20
2022-09-15T18:58:54.414Z,55.10
2022-09-15T19:01:23.035Z,54.90
2022-09-15T19:03:52.929Z,54.60
2022-09-15T19:06:21.075Z,54.60
2022-09-15T19:08:49.142Z,54.60
2022-09-15T19:11:17.323Z,54.40
2022-09-15T19:13:45.421Z,54.50
2022-09-15T19:16:13.561Z,54.40
2022-09-15T19:18:44.843Z,54.40
2022-09-15T19:21:14.347Z,54.30
2022-09-15T19:23:42.411Z,54.30
2022-09-15T19:26:13.671Z,54.30
2022-09-15T19:28:41.849Z,54.30
2022-09-15T19:31:10.030Z,54.30
2022-09-15T19:33:38.918Z,54.20
2022-09-15T19:36:28.377Z,54.30
2022-09-15T19:39:00.391Z,54.40
2022-09-15T19:41:28.545Z,54.40
2022-09-15T19:43:56.719Z,54.40
2022-09-15T19:46:26.457Z,54.40
2022-09-15T19:48:55.457Z,54.40
2022-09-15T19:51:24.284Z,54.50
2022-09-15T19:53:55.954Z,54.60
2022-09-15T19:56:27.174Z,54.30
2022-09-15T19:58:57.073Z,54.40
2022-09-15T20:01:26.462Z,54.40
2022-09-15T20:03:56.029Z,54.40
2022-09-15T20:06:27.764Z,54.40
2022-09-15T20:08:59.697Z,54.50
2022-09-15T20:11:30.020Z,54.70
2022-09-15T20:13:58.423Z,54.80
2022-09-15T20:16:26.720Z,54.90
2022-09-15T20:18:55.980Z,55.00
2022-09-15T20:21:48.832Z,55.10
2022-09-15T20:24:15.008Z,55.20
2022-09-15T20:26:44.460Z,58.70
2022-09-15T20:29:13.218Z,59.20
2022-09-15T20:31:41.767Z,57.00
2022-09-15T20:34:09.998Z,56.20
2022-09-15T20:36:38.987Z,55.80
2022-09-15T20:39:10.490Z,55.50
2022-09-15T20:41:39.316Z,55.40
2022-09-15T20:44:10.317Z,55.30
2022-09-15T20:46:38.432Z,55.40
2022-09-15T20:49:06.628Z,55.50
2022-09-15T20:51:35.064Z,55.50
2022-09-15T20:54:04.910Z,55.70
2022-09-15T20:56:35.364Z,55.80
2022-09-15T20:59:04.786Z,56.00
2022-09-15T21:01:37.286Z,56.10
2022-09-15T21:04:06.300Z,56.20
2022-09-15T21:06:34.918Z,56.30
2022-09-15T21:09:03.762Z,56.40
2022-09-15T21:11:31.993Z,56.50
2022-09-15T21:14:00.106Z,56.70
2022-09-15T21:16:29.857Z,56.80
2022-09-15T21:19:00.316Z,56.90
2022-09-15T21:21:30.270Z,57.10
2022-09-15T21:24:01.258Z,57.20
2022-09-15T21:26:30.885Z,57.20
2022-09-15T21:28:59.293Z,57.30
2022-09-15T21:31:29.635Z,57.50
2022-09-15T21:34:00.817Z,57.50
2022-09-15T21:36:30.585Z,57.60
2022-09-15T21:39:00.018Z,57.60
2022-09-15T21:41:30.002Z,57.60
2022-09-15T21:43:59.346Z,57.70
2022-09-15T21:46:29.197Z,57.90
2022-09-15T21:49:00.281Z,57.90
2022-09-15T21:51:30.332Z,58.00
2022-09-15T21:54:07.219Z,58.20
2022-09-15T21:56:35.293Z,58.20
2022-09-15T21:59:04.955Z,58.30
2022-09-15T22:01:34.320Z,58.40
2022-09-15T22:04:06.238Z,58.50
2022-09-15T22:06:36.555Z,58.60
2022-09-15T22:09:20.829Z,58.50
2022-09-15T22:11:49.979Z,58.70
2022-09-15T22:14:18.162Z,58.70
2022-09-15T22:16:46.274Z,58.80
2022-09-15T22:19:15.942Z,58.90
2022-09-15T22:21:44.371Z,59.00
2022-09-15T22:24:14.105Z,59.10
2022-09-15T22:26:43.572Z,59.20
2022-09-15T22:29:12.143Z,59.20
2022-09-15T22:31:40.936Z,59.30
2022-09-15T22:34:09.119Z,59.30
2022-09-15T22:36:38.604Z,59.40
2022-09-15T22:39:06.801Z,59.40
2022-09-15T22:41:36.414Z,59.50
2022-09-15T22:44:05.068Z,59.60
2022-09-15T22:46:33.296Z,59.50
2022-09-15T22:49:01.573Z,59.50
2022-09-15T22:51:30.003Z,59.60
2022-09-15T22:54:03.041Z,59.70
2022-09-15T22:56:31.778Z,59.70
2022-09-15T22:59:00.355Z,59.80
2022-09-15T23:01:30.585Z,59.80
2022-09-15T23:04:00.731Z,59.80
2022-09-15T23:06:31.676Z,59.90
2022-09-15T23:09:04.797Z,60.00
2022-09-15T23:11:33.419Z,60.00
2022-09-15T23:14:02.241Z,60.00
2022-09-15T23:16:32.440Z,60.00
2022-09-15T23:19:02.550Z,60.00
2022-09-15T23:21:30.661Z,59.90
2022-09-15T23:24:00.648Z,60.10
2022-09-15T23:26:29.016Z,60.20
2022-09-15T23:28:57.148Z,60.20
2022-09-15T23:31:25.348Z,60.20
2022-09-15T23:33:53.405Z,60.30
2022-09-15T23:36:21.943Z,60.20
2022-09-15T23:38:50.700Z,60.30
2022-09-15T23:41:20.459Z,60.30
2022-09-15T23:43:48.645Z,60.30
2022-09-15T23:46:17.421Z,60.30
2022-09-15T23:48:46.082Z,60.30
2022-09-15T23:51:14.444Z,60.50
2022-09-15T23:53:42.694Z,60.50
2022-09-15T23:56:10.765Z,60.50
2022-09-15T23:58:40.268Z,60.50
